Time;durP1;ratioP1;P1;durP2;ratioP2;P2;SDS_P1;SDS_P2;PMS_P1;PMS_P2;Temp;Humidity;BMP_temperature;BMP_pressure;BME280_temperature;BME280_humidity;BME280_pressure;Samples;Min_cycle;Max_cycle;Signal;HPM_P1;HPM_P2
2023/08/28 00:00:15;;;;;;;4.40;1.98;;;;;;;12.84;100.00;100980.09;5033300;28;20048;-74
2023/08/28 00:02:43;;;;;;;2.10;2.00;;;;;;;12.82;100.00;100982.72;5068897;28;20036;-74
2023/08/28 00:05:10;;;;;;;2.50;2.13;;;;;;;12.81;100.00;100986.25;5082902;28;20070;-74
2023/08/28 00:07:38;;;;;;;6.03;2.10;;;;;;;12.79;100.00;100993.31;5067799;28;20516;-76
2023/08/28 00:10:05;;;;;;;2.35;2.05;;;;;;;12.79;100.00;100992.44;5083647;28;20040;-74
2023/08/28 00:12:36;;;;;;;3.63;1.90;;;;;;;12.77;100.00;100992.44;5082806;28;20059;-74
2023/08/28 00:15:04;;;;;;;3.88;1.90;;;;;;;12.78;100.00;100994.22;5017566;28;20055;-74
2023/08/28 00:17:31;;;;;;;4.28;1.80;;;;;;;12.76;100.00;100990.69;5080444;28;20044;-74
2023/08/28 00:19:59;;;;;;;3.03;1.85;;;;;;;12.75;100.00;100988.06;5082312;28;20052;-74
2023/08/28 00:22:26;;;;;;;4.20;2.05;;;;;;;12.72;100.00;100999.53;5068470;28;20046;-74
2023/08/28 00:24:53;;;;;;;3.80;2.20;;;;;;;12.70;100.00;101005.69;5049941;28;20051;-74
2023/08/28 00:27:21;;;;;;;2.10;1.90;;;;;;;12.65;100.00;101003.06;5078222;28;20051;-75
2023/08/28 00:29:48;;;;;;;3.58;2.10;;;;;;;12.62;100.00;100997.78;5058455;28;20122;-75
2023/08/28 00:32:16;;;;;;;2.28;2.08;;;;;;;12.59;100.00;100997.78;5003580;28;20048;-75
2023/08/28 00:34:43;;;;;;;4.00;2.42;;;;;;;12.58;100.00;101010.13;5057432;28;20524;-74
2023/08/28 00:37:14;;;;;;;;;;;;;;;12.58;100.00;101002.19;5052852;28;20520;-73
2023/08/28 00:39:41;;;;;;;3.20;1.83;;;;;;;12.57;100.00;100999.56;5069474;28;20385;-74
2023/08/28 00:42:08;;;;;;;4.47;2.17;;;;;;;12.56;100.00;101003.97;5084514;28;20044;-74
2023/08/28 00:44:36;;;;;;;2.95;2.65;;;;;;;12.55;100.00;101007.50;5067299;28;20054;-74
2023/08/28 00:47:06;;;;;;;2.47;2.20;;;;;;;12.55;100.00;101002.22;5048247;28;20059;-74
2023/08/28 00:49:34;;;;;;;2.95;2.35;;;;;;;12.57;100.00;100997.81;5084050;28;20063;-74
2023/08/28 00:52:02;;;;;;;4.15;2.40;;;;;;;12.59;100.00;100997.78;5052028;28;20122;-74
2023/08/28 00:54:30;;;;;;;6.57;2.35;;;;;;;12.59;100.00;100997.78;5054266;28;20045;-74
2023/08/28 00:56:58;;;;;;;3.67;2.45;;;;;;;12.60;100.00;100994.28;5079579;28;20051;-74
2023/08/28 00:59:28;;;;;;;3.72;2.22;;;;;;;12.62;100.00;100998.66;5045360;28;20036;-74
2023/08/28 01:01:55;;;;;;;2.58;2.30;;;;;;;12.62;100.00;100997.78;5019906;28;20051;-74
2023/08/28 01:04:24;;;;;;;6.07;2.42;;;;;;;12.61;100.00;100986.34;5044965;28;20505;-74
2023/08/28 01:07:00;;;;;;;5.40;2.83;;;;;;;12.61;100.00;100978.41;5044494;28;20074;-74
2023/08/28 01:09:50;;;;;;;3.88;2.38;;;;;;;12.58;100.00;100977.53;5066905;28;20783;-75
2023/08/28 01:12:29;;;;;;;2.53;2.00;;;;;;;12.57;100.00;100967.84;5073469;28;20048;-75
2023/08/28 01:15:10;;;;;;;5.33;2.53;;;;;;;12.57;100.00;100967.84;5085462;28;20044;-75
2023/08/28 01:17:39;;;;;;;;;;;;;;;12.57;100.00;100981.03;5039614;28;20425;-74
2023/08/28 01:20:13;;;;;;;4.20;2.13;;;;;;;12.56;100.00;100976.66;5082680;28;19920;-74
2023/08/28 01:22:57;;;;;;;2.55;2.35;;;;;;;12.55;100.00;100975.78;5054827;28;20048;-75
2023/08/28 01:25:26;;;;;;;4.70;2.05;;;;;;;12.55;100.00;100973.16;5062140;28;20516;-74
2023/08/28 01:27:54;;;;;;;4.80;2.00;;;;;;;12.55;100.00;100974.88;5047254;28;20516;-74
2023/08/28 01:30:21;;;;;;;3.03;2.30;;;;;;;12.53;100.00;100977.53;5050092;28;20052;-74
2023/08/28 01:32:48;;;;;;;3.05;2.10;;;;;;;12.53;100.00;100977.53;5008428;28;20103;-74
2023/08/28 01:35:20;;;;;;;3.20;2.50;;;;;;;12.52;100.00;100981.06;5035154;28;20049;-74
2023/08/28 01:38:03;;;;;;;3.20;1.85;;;;;;;12.52;100.00;100974.91;5077524;28;20052;-74
2023/08/28 01:40:35;;;;;;;3.50;2.10;;;;;;;12.51;100.00;100974.00;5060874;28;20049;-74
2023/08/28 01:43:07;;;;;;;2.80;2.08;;;;;;;12.50;100.00;100972.28;5045418;28;20048;-74
2023/08/28 01:45:37;;;;;;;5.20;2.35;;;;;;;12.50;100.00;100959.06;5046672;28;20048;-75
2023/08/28 01:48:05;;;;;;;2.45;2.10;;;;;;;12.50;100.00;100966.13;5059321;28;20049;-74
2023/08/28 01:50:33;;;;;;;3.83;2.00;;;;;;;12.48;100.00;100961.69;5008515;28;20075;-74
2023/08/28 01:53:00;;;;;;;1.98;1.85;;;;;;;12.50;100.00;100959.06;5037074;28;20053;-74
2023/08/28 01:56:03;;;;;;;2.05;1.95;;;;;;;12.54;100.00;100952.00;5043939;28;20044;-74
2023/08/28 01:58:32;;;;;;;3.05;2.40;;;;;;;12.55;100.00;100953.75;5032139;28;20056;-74
2023/08/28 02:01:00;;;;;;;3.15;2.30;;;;;;;12.58;100.00;100954.63;5046059;28;20056;-74
2023/08/28 02:03:29;;;;;;;3.00;1.77;;;;;;;12.62;100.00;100955.47;5045541;28;20053;-74
2023/08/28 02:05:57;;;;;;;4.03;1.90;;;;;;;12.64;100.00;100948.44;5028485;28;20041;-74
2023/08/28 02:08:24;;;;;;;2.15;1.90;;;;;;;12.65;100.00;100951.06;5043733;28;20486;-74
2023/08/28 02:10:52;;;;;;;3.25;1.92;;;;;;;12.66;100.00;100949.28;5057031;28;20063;-74
2023/08/28 02:13:22;;;;;;;3.53;1.77;;;;;;;12.67;100.00;100959.00;5055059;28;20425;-74
2023/08/28 02:15:49;;;;;;;3.80;1.83;;;;;;;12.68;100.00;100960.75;5045124;28;20442;-74
2023/08/28 02:18:16;;;;;;;4.70;2.30;;;;;;;12.68;100.00;100966.94;5056541;28;20048;-74
2023/08/28 02:20:45;;;;;;;2.90;1.70;;;;;;;12.70;100.00;100971.31;5015741;28;20063;-74
2023/08/28 02:23:12;;;;;;;3.05;1.80;;;;;;;12.66;100.00;100976.63;5017625;28;20052;-74
2023/08/28 02:25:44;;;;;;;1.50;1.40;;;;;;;12.66;100.00;100991.59;5017366;28;20060;-74
2023/08/28 02:28:11;;;;;;;1.58;1.45;;;;;;;12.67;100.00;100994.25;5064148;28;20497;-74
2023/08/28 02:30:39;;;;;;;1.27;1.17;;;;;;;12.68;100.00;101003.03;5044329;28;20049;-74
2023/08/28 02:33:06;;;;;;;1.70;1.60;;;;;;;12.71;100.00;100997.75;5061530;28;20052;-76
2023/08/28 02:35:34;;;;;;;2.05;1.95;;;;;;;12.75;100.00;100999.50;5025304;28;20048;-75
2023/08/28 02:38:01;;;;;;;2.15;1.65;;;;;;;12.79;100.00;101008.31;5059184;28;20061;-75
2023/08/28 02:40:29;;;;;;;1.20;1.20;;;;;;;12.81;100.00;101010.06;5044717;28;20045;-74
2023/08/28 02:43:05;;;;;;;3.03;1.60;;;;;;;12.84;100.00;101003.88;5044201;28;20063;-75
2023/08/28 02:45:34;;;;;;;3.72;1.80;;;;;;;12.85;100.00;100997.69;5037141;28;20056;-74
2023/08/28 02:48:03;;;;;;;2.33;2.10;;;;;;;12.85;100.00;100998.59;5053474;28;20111;-74
2023/08/28 02:50:31;;;;;;;4.65;2.00;;;;;;;12.86;100.00;101007.41;5032642;28;20056;-74
2023/08/28 02:52:59;;;;;;;2.92;2.05;;;;;;;12.83;100.00;100997.69;5062793;28;20048;-74
2023/08/28 02:55:30;;;;;;;2.78;2.45;;;;;;;12.82;100.00;100997.72;5050603;28;20047;-74
2023/08/28 02:57:57;;;;;;;4.03;2.22;;;;;;;12.80;100.00;100992.44;5064272;28;20048;-74
2023/08/28 03:00:24;;;;;;;2.92;2.60;;;;;;;12.80;100.00;100989.78;5038610;28;20060;-74
2023/08/28 03:02:52;;;;;;;3.58;2.30;;;;;;;12.77;100.00;100996.88;5062715;28;20059;-74
2023/08/28 03:05:20;;;;;;;4.05;2.65;;;;;;;12.74;100.00;101004.78;5030303;28;20059;-74
2023/08/28 03:07:47;;;;;;;4.35;3.10;;;;;;;12.70;100.00;101006.56;5037307;28;20815;-74
2023/08/28 03:10:14;;;;;;;5.85;3.40;;;;;;;12.66;100.00;101011.00;5030305;28;20049;-74
2023/08/28 03:12:42;;;;;;;5.47;2.83;;;;;;;12.63;100.00;101000.44;5043775;28;20056;-74
2023/08/28 03:15:09;;;;;;;3.05;2.63;;;;;;;12.61;100.00;101007.50;5036901;28;20052;-74
2023/08/28 03:17:37;;;;;;;4.80;2.58;;;;;;;12.59;100.00;101001.31;5027156;28;20045;-74
2023/08/28 03:20:04;;;;;;;2.83;2.63;;;;;;;12.57;100.00;101004.84;5043004;28;20048;-74
2023/08/28 03:22:32;;;;;;;5.60;2.70;;;;;;;12.55;100.00;101006.59;5001382;28;20052;-74
2023/08/28 03:24:59;;;;;;;4.30;2.75;;;;;;;12.53;100.00;101014.53;5065542;28;20489;-74
2023/08/28 03:27:27;;;;;;;4.22;2.75;;;;;;;12.51;100.00;101023.38;5050139;28;20064;-74
2023/08/28 03:29:54;;;;;;;3.95;2.75;;;;;;;12.48;100.00;101029.56;5064156;28;20049;-74
2023/08/28 03:32:21;;;;;;;4.57;2.78;;;;;;;12.43;100.00;101026.88;5027440;28;20063;-74
2023/08/28 03:34:49;;;;;;;4.55;2.92;;;;;;;12.41;100.00;101025.16;5064739;28;20048;-74
2023/08/28 03:37:16;;;;;;;5.05;2.53;;;;;;;12.36;100.00;101022.53;4996275;28;20044;-74
2023/08/28 03:39:43;;;;;;;2.97;2.63;;;;;;;12.33;100.00;101026.94;5065523;28;20048;-74
2023/08/28 03:42:11;;;;;;;5.05;2.80;;;;;;;12.31;100.00;101029.56;5049127;28;20057;-74
2023/08/28 03:44:38;;;;;;;2.80;2.50;;;;;;;12.31;100.00;101028.69;5060349;28;20721;-74
2023/08/28 03:47:05;;;;;;;3.33;2.88;;;;;;;12.31;100.00;101029.56;5041321;28;20044;-75
2023/08/28 03:49:32;;;;;;;4.20;2.90;;;;;;;12.31;100.00;101037.50;5020963;28;20056;-74
2023/08/28 03:52:01;;;;;;;2.42;2.22;;;;;;;12.28;100.00;101051.56;5006903;28;20048;-74
2023/08/28 03:54:28;;;;;;;3.40;2.40;;;;;;;12.28;100.00;101064.78;5026510;28;20048;-74
2023/08/28 03:56:57;;;;;;;3.10;2.80;;;;;;;12.29;100.00;101058.63;5046212;28;20052;-74
2023/08/28 03:59:24;;;;;;;2.67;2.33;;;;;;;12.29;100.00;101058.63;5062081;28;20048;-74
2023/08/28 04:01:53;;;;;;;3.22;2.30;;;;;;;12.25;100.00;101043.66;5019346;28;20056;-74
2023/08/28 04:04:21;;;;;;;4.80;2.38;;;;;;;12.23;100.00;101042.78;5043053;28;20036;-74
2023/08/28 04:06:48;;;;;;;2.63;2.00;;;;;;;12.22;100.00;101041.00;5036428;28;20425;-74
2023/08/28 04:09:15;;;;;;;4.07;1.95;;;;;;;12.20;100.00;101037.50;5007917;28;20040;-74
2023/08/28 04:11:43;;;;;;;2.60;2.08;;;;;;;12.19;100.00;101050.69;5063126;28;20541;-74
2023/08/28 04:14:10;;;;;;;2.53;2.28;;;;;;;12.19;100.00;101053.34;5033449;28;20051;-74
2023/08/28 04:16:37;;;;;;;2.92;2.40;;;;;;;12.17;100.00;101058.63;5053348;28;20457;-74
2023/08/28 04:19:05;;;;;;;3.85;2.75;;;;;;;12.16;100.00;101062.16;5030490;28;20119;-74
2023/08/28 04:21:32;;;;;;;2.95;2.17;;;;;;;12.16;100.00;101063.94;5040852;28;20739;-74
2023/08/28 04:23:59;;;;;;;5.18;2.50;;;;;;;12.16;100.00;101071.84;5007335;28;20162;-74
2023/08/28 04:26:28;;;;;;;2.92;2.60;;;;;;;12.14;100.00;101070.97;5046346;28;20497;-74
2023/08/28 04:28:56;;;;;;;3.88;2.33;;;;;;;12.12;100.00;101070.06;5039119;28;20426;-74
2023/08/28 04:31:24;;;;;;;3.42;2.50;;;;;;;12.11;100.00;101070.97;5041739;28;20040;-74
2023/08/28 04:33:52;;;;;;;4.90;2.40;;;;;;;12.09;100.00;101061.25;5047949;28;20402;-74
2023/08/28 04:36:20;;;;;;;5.65;2.35;;;;;;;12.08;100.00;101064.81;5049429;28;20066;-74
2023/08/28 04:38:49;;;;;;;3.10;2.73;;;;;;;12.05;100.00;101058.63;5013505;28;20059;-75
2023/08/28 04:41:17;;;;;;;4.63;2.70;;;;;;;12.03;100.00;101060.41;5062551;28;20302;-75
2023/08/28 04:43:44;;;;;;;4.18;3.00;;;;;;;12.01;100.00;101056.88;5046467;28;20060;-73
2023/08/28 04:46:13;;;;;;;6.55;3.03;;;;;;;11.99;100.00;101054.22;5041320;28;20049;-74
2023/08/28 04:48:40;;;;;;;5.78;2.75;;;;;;;11.99;100.00;101053.34;5056136;28;20041;-75
2023/08/28 04:51:07;;;;;;;3.72;2.58;;;;;;;11.98;100.00;101057.72;5033913;28;20497;-74
2023/08/28 04:53:34;;;;;;;2.95;2.65;;;;;;;11.99;100.00;101064.78;5059480;28;20052;-73
2023/08/28 04:56:02;;;;;;;3.28;2.40;;;;;;;12.00;100.00;101063.94;4997995;28;20048;-74
2023/08/28 04:58:30;;;;;;;5.35;3.40;;;;;;;12.04;100.00;101072.69;5060708;28;20055;-74
2023/08/28 05:00:57;;;;;;;6.07;4.03;;;;;;;12.04;100.00;101057.75;5048767;28;20041;-74
2023/08/28 05:03:24;;;;;;;3.35;2.88;;;;;;;12.05;100.00;101059.50;5005247;28;20053;-74
2023/08/28 05:05:53;;;;;;;5.25;2.47;;;;;;;12.05;100.00;101064.78;5022383;28;20052;-74
2023/08/28 05:08:20;;;;;;;5.20;2.88;;;;;;;12.06;100.00;101066.56;5054150;28;20497;-75
2023/08/28 05:10:48;;;;;;;3.17;2.55;;;;;;;12.07;100.00;101072.72;5016327;28;20052;-75
2023/08/28 05:13:15;;;;;;;5.70;2.78;;;;;;;12.07;100.00;101073.59;5045364;28;20041;-75
2023/08/28 05:15:42;;;;;;;3.15;2.70;;;;;;;12.07;100.00;101088.56;5047047;28;20051;-77
2023/08/28 05:18:11;;;;;;;2.70;2.47;;;;;;;12.09;100.00;101100.88;5053243;28;20040;-76
2023/08/28 05:20:41;;;;;;;3.75;2.90;;;;;;;12.13;100.00;101111.47;5052326;28;20063;-75
2023/08/28 05:23:09;;;;;;;4.70;2.63;;;;;;;12.15;100.00;101107.94;5051012;28;20048;-75
2023/08/28 05:25:36;;;;;;;4.10;2.28;;;;;;;12.21;100.00;101117.63;4992462;28;20055;-77
2023/08/28 05:28:05;;;;;;;4.70;2.65;;;;;;;12.25;100.00;101114.13;5047793;28;20053;-78
2023/08/28 05:30:32;;;;;;;2.78;2.58;;;;;;;12.29;100.00;101105.31;5030821;28;20049;-76
2023/08/28 05:33:00;;;;;;;4.07;2.70;;;;;;;12.33;100.00;101104.44;5030683;28;20502;-76
2023/08/28 05:35:29;;;;;;;2.80;2.60;;;;;;;12.36;100.00;101090.31;5035881;28;20045;-76
2023/08/28 05:37:56;;;;;;;4.05;2.38;;;;;;;12.40;100.00;101095.63;5021895;28;20053;-76
2023/08/28 05:40:24;;;;;;;2.92;2.47;;;;;;;12.43;100.00;101100.91;5006578;28;20060;-76
2023/08/28 05:42:51;;;;;;;4.65;2.38;;;;;;;12.50;100.00;101107.06;5034932;28;20490;-76
2023/08/28 05:45:18;;;;;;;3.95;3.00;;;;;;;12.55;100.00;101102.69;5047934;28;20041;-76
2023/08/28 05:47:46;;;;;;;5.22;2.88;;;;;;;12.61;100.00;101096.50;5046058;28;20050;-76
2023/08/28 05:50:13;;;;;;;4.70;4.13;;;;;;;12.71;100.00;101097.38;5050057;28;20529;-76
2023/08/28 05:52:40;;;;;;;3.72;2.95;;;;;;;12.76;100.00;101096.47;5037352;28;20040;-75
2023/08/28 05:55:08;;;;;;;2.78;2.50;;;;;;;12.86;100.00;101100.84;5032046;28;20052;-76
2023/08/28 05:57:36;;;;;;;5.47;2.70;;;;;;;12.98;100.00;101114.94;5016398;28;20060;-75
2023/08/28 06:00:04;;;;;;;4.43;2.35;;;;;;;13.09;100.00;101112.25;5036331;28;20517;-77
2023/08/28 06:02:41;;;;;;;3.08;2.42;;;;;;;13.18;100.00;101104.31;5048636;28;20044;-77
2023/08/28 06:05:08;;;;;;;2.35;2.15;;;;;;;13.25;100.00;101106.91;5029625;28;20060;-75
2023/08/28 06:07:36;;;;;;;3.63;2.70;;;;;;;13.33;100.00;101090.16;5035206;28;20494;-75
2023/08/28 06:10:05;;;;;;;5.05;2.00;;;;;;;13.39;100.00;101091.00;5028032;28;20052;-75
2023/08/28 06:12:32;;;;;;;2.90;2.03;;;;;;;13.48;100.00;101090.09;4984875;28;20783;-76
2023/08/28 06:14:59;;;;;;;4.13;1.70;;;;;;;13.57;100.00;101086.50;5032096;28;20060;-75
2023/08/28 06:17:27;;;;;;;3.03;2.20;;;;;;;13.63;100.00;101073.25;5015739;28;20052;-76
2023/08/28 06:19:54;;;;;;;4.13;2.28;;;;;;;13.67;100.00;101077.63;5045945;28;20056;-75
2023/08/28 06:22:21;;;;;;;2.50;1.83;;;;;;;13.72;100.00;101075.81;5030394;28;20063;-76
2023/08/28 06:24:52;;;;;;;3.08;1.90;;;;;;;13.77;100.00;101071.38;5052975;28;20061;-76
2023/08/28 06:27:20;;;;;;;3.72;2.00;;;;;;;14.02;100.00;101079.16;5003071;28;20057;-76
2023/08/28 06:29:47;;;;;;;3.25;1.60;;;;;;;14.21;100.00;101071.94;5043994;28;20056;-76
2023/08/28 06:32:14;;;;;;;4.07;1.75;;;;;;;14.30;100.00;101077.16;5047595;28;20059;-76
2023/08/28 06:34:42;;;;;;;2.15;1.48;;;;;;;14.40;100.00;101075.31;5047728;28;20060;-76
2023/08/28 06:37:09;;;;;;;2.70;1.35;;;;;;;14.47;100.00;101073.50;5029748;28;21275;-76
2023/08/28 06:39:37;;;;;;;1.98;1.40;;;;;;;14.52;100.00;101083.16;5014919;28;20053;-76
2023/08/28 06:42:04;;;;;;;3.53;1.60;;;;;;;14.55;100.00;101085.78;4999148;28;20056;-76
2023/08/28 06:44:34;;;;;;;4.68;1.58;;;;;;;14.61;100.00;101088.41;5060405;28;20520;-75
2023/08/28 06:47:02;;;;;;;2.95;1.67;;;;;;;14.72;100.00;101095.38;5041963;28;20063;-76
2023/08/28 06:49:30;;;;;;;1.70;1.17;;;;;;;14.81;100.00;101098.81;5022976;28;20063;-75
2023/08/28 06:51:57;;;;;;;1.67;1.10;;;;;;;14.97;100.00;101085.38;5051137;28;20053;-75
2023/08/28 06:54:25;;;;;;;3.13;1.60;;;;;;;15.17;100.00;101101.09;5032403;28;20045;-76
2023/08/28 06:56:59;;;;;;;4.85;1.38;;;;;;;15.47;100.00;101093.66;5023242;28;20426;-75
2023/08/28 06:59:27;;;;;;;3.60;1.33;;;;;;;15.78;100.00;101096.78;5047073;28;20060;-76
2023/08/28 07:01:54;;;;;;;2.72;1.30;;;;;;;16.04;100.00;101091.06;5045869;28;20044;-75
2023/08/28 07:04:21;;;;;;;1.38;1.10;;;;;;;16.40;100.00;101091.38;5043430;28;20592;-76
2023/08/28 07:06:49;;;;;;;2.80;1.20;;;;;;;16.68;100.00;101093.56;5055982;28;20044;-76
2023/08/28 07:09:16;;;;;;;3.75;1.17;;;;;;;16.86;100.00;101095.94;5018665;28;20486;-76
2023/08/28 07:11:44;;;;;;;4.82;1.50;;;;;;;16.89;100.00;101097.63;5045873;28;20075;-76
2023/08/28 07:14:11;;;;;;;1.88;1.08;;;;;;;16.87;100.00;101092.34;5015398;28;20059;-76
2023/08/28 07:16:38;;;;;;;1.25;1.08;;;;;;;16.95;100.00;101092.19;5061214;28;20393;-76
2023/08/28 07:19:05;;;;;;;1.25;1.00;;;;;;;17.13;100.00;101091.84;5058854;28;20052;-76
2023/08/28 07:21:33;;;;;;;2.08;1.20;;;;;;;17.36;100.00;101090.47;5061754;28;20040;-76
2023/08/28 07:24:00;;;;;;;3.63;1.30;;;;;;;17.49;100.00;101088.44;5028406;28;20064;-76
2023/08/28 07:26:27;;;;;;;3.72;1.10;;;;;;;17.56;100.00;101090.06;5049608;28;20044;-76
2023/08/28 07:28:55;;;;;;;2.42;1.13;;;;;;;17.65;100.00;101099.63;4989127;28;20052;-76
2023/08/28 07:31:22;;;;;;;1.02;0.90;;;;;;;17.68;100.00;101103.09;5049692;28;20048;-76
2023/08/28 07:33:49;;;;;;;3.17;1.00;;;;;;;17.70;100.00;101109.28;5048930;28;20060;-76
2023/08/28 07:36:22;;;;;;;3.58;1.17;;;;;;;17.70;100.00;101116.41;5045590;28;20119;-76
2023/08/28 07:38:49;;;;;;;4.50;1.30;;;;;;;17.70;100.00;101116.41;5031134;28;20060;-76
2023/08/28 07:41:19;;;;;;;6.13;1.17;;;;;;;17.72;100.00;101127.91;5031179;28;20059;-75
2023/08/28 07:43:47;;;;;;;2.65;1.00;;;;;;;17.71;100.00;101126.13;5027896;28;20112;-75
2023/08/28 07:46:14;;;;;;;3.00;1.20;;;;;;;17.70;100.00;101135.06;5052187;28;20044;-75
2023/08/28 07:48:42;;;;;;;2.55;0.60;;;;;;;17.72;100.00;101135.91;5045859;28;20056;-75
2023/08/28 07:51:10;;;;;;;1.00;0.90;;;;;;;17.77;100.00;101152.69;5058881;28;20414;-77
2023/08/28 07:53:38;;;;;;;2.35;1.08;;;;;;;17.83;100.00;101151.66;5055004;28;20045;-75
2023/08/28 07:56:05;;;;;;;2.45;0.80;;;;;;;17.89;100.00;101147.09;5012780;28;20048;-75
2023/08/28 07:58:33;;;;;;;2.65;0.90;;;;;;;17.97;100.00;101138.91;5059536;28;20056;-75
2023/08/28 08:01:03;;;;;;;1.90;1.13;;;;;;;18.04;100.00;101147.66;5021408;28;20052;-75
2023/08/28 08:03:31;;;;;;;2.22;1.10;;;;;;;18.08;100.00;101144.00;5028869;28;20045;-75
2023/08/28 08:05:59;;;;;;;3.40;1.02;;;;;;;18.05;100.00;101146.75;5047293;28;20044;-75
2023/08/28 08:08:26;;;;;;;1.75;0.77;;;;;;;18.04;100.00;101145.00;5053633;28;20516;-74
2023/08/28 08:10:53;;;;;;;1.83;0.93;;;;;;;18.06;100.00;101148.50;5035072;28;20045;-74
2023/08/28 08:13:20;;;;;;;2.90;1.30;;;;;;;18.14;100.00;101159.00;5056805;28;20053;-75
2023/08/28 08:15:48;;;;;;;1.13;0.90;;;;;;;18.25;100.00;101162.28;5016446;28;20402;-74
2023/08/28 08:18:15;;;;;;;5.30;1.20;;;;;;;18.36;100.00;101151.38;5059373;28;20041;-74
2023/08/28 08:20:43;;;;;;;3.25;1.13;;;;;;;18.50;100.00;101154.56;5052930;28;20048;-75
2023/08/28 08:23:11;;;;;;;3.30;1.17;;;;;;;18.62;100.00;101159.59;5025898;28;20048;-74
2023/08/28 08:25:38;;;;;;;1.52;1.42;;;;;;;18.70;100.00;101154.94;5043747;28;20040;-74
2023/08/28 08:28:06;;;;;;;2.75;1.40;;;;;;;18.75;100.00;101157.50;5042624;28;20044;-74
2023/08/28 08:30:33;;;;;;;2.15;1.30;;;;;;;18.76;100.00;101164.56;4998427;28;20053;-74
2023/08/28 08:33:00;;;;;;;1.33;1.17;;;;;;;18.77;100.00;101158.34;5071210;28;20052;-74
2023/08/28 08:35:29;;;;;;;3.60;1.20;;;;;;;18.84;100.00;101153.72;5043668;28;20059;-75
2023/08/28 08:37:56;;;;;;;1.50;0.95;;;;;;;18.86;100.00;101155.44;5035344;28;20053;-74
2023/08/28 08:40:25;;;;;;;3.08;1.17;;;;;;;18.85;100.00;101151.03;5032488;28;20044;-73
2023/08/28 08:42:54;;;;;;;2.20;1.30;;;;;;;18.87;100.00;101148.31;5046485;28;20060;-74
2023/08/28 08:45:28;;;;;;;2.05;0.95;;;;;;;19.07;100.00;101146.00;5060806;28;20057;-75
2023/08/28 08:47:58;;;;;;;1.42;0.82;;;;;;;19.23;100.00;101146.44;5023016;28;20045;-75
2023/08/28 08:50:27;;;;;;;2.35;0.85;;;;;;;19.25;100.00;101151.75;5038545;28;20045;-74
2023/08/28 08:52:57;;;;;;;4.85;1.05;;;;;;;19.22;100.00;101152.69;5045678;28;20052;-74
2023/08/28 08:55:49;;;;;;;4.05;0.80;;;;;;;19.17;100.00;101161.75;5042113;28;20048;-73
2023/08/28 08:58:16;;;;;;;2.70;0.70;;;;;;;19.15;100.00;101158.25;5042101;28;20043;-73
2023/08/28 09:00:44;;;;;;;4.53;0.90;;;;;;;19.06;100.00;101160.25;5045792;28;20072;-73
2023/08/28 09:03:13;;;;;;;0.85;0.50;;;;;;;18.91;100.00;101163.34;5013719;28;20060;-76
2023/08/28 09:05:41;;;;;;;1.08;0.70;;;;;;;18.69;100.00;101166.53;5054441;28;20052;-73
2023/08/28 09:08:10;;;;;;;4.65;0.98;;;;;;;18.52;100.00;101174.06;5050850;28;20037;-77
2023/08/28 09:10:37;;;;;;;2.10;0.73;;;;;;;18.36;100.00;101172.72;5037321;28;20048;-76
2023/08/28 09:13:05;;;;;;;0.80;0.80;;;;;;;18.34;100.00;101171.88;5041463;28;20045;-75
2023/08/28 09:15:33;;;;;;;1.33;0.80;;;;;;;18.44;100.00;101174.25;5050476;28;20048;-76
2023/08/28 09:18:02;;;;;;;0.57;0.50;;;;;;;18.59;100.00;101161.47;5060380;28;20043;-75
2023/08/28 09:20:29;;;;;;;2.70;0.70;;;;;;;18.72;100.00;101170.06;5031216;28;20043;-75
2023/08/28 09:22:57;;;;;;;0.60;0.60;;;;;;;18.86;100.00;101157.22;5048088;28;20048;-75
2023/08/28 09:25:26;;;;;;;2.25;0.63;;;;;;;19.03;100.00;101156.78;5017146;28;20051;-75
2023/08/28 09:27:55;;;;;;;1.42;0.80;;;;;;;19.22;100.00;101154.47;5037303;28;20052;-75
2023/08/28 09:30:28;;;;;;;1.90;0.60;;;;;;;19.42;100.00;101168.16;5037986;28;20052;-76
2023/08/28 09:33:01;;;;;;;1.42;0.82;;;;;;;19.64;100.00;101167.53;5032361;28;20049;-76
2023/08/28 09:35:39;;;;;;;1.38;0.63;;;;;;;19.76;100.00;101163.66;5014393;28;20079;-75
2023/08/28 09:38:08;;;;;;;0.73;0.45;;;;;;;19.86;100.00;101163.31;5059898;28;20413;-74
2023/08/28 09:40:39;;;;;;;0.73;0.60;;;;;;;19.81;100.00;101175.97;5047347;28;20063;-74
2023/08/28 09:43:16;;;;;;;1.35;0.65;;;;;;;19.67;100.00;101175.47;5032291;28;20049;-74
2023/08/28 09:45:45;;;;;;;2.13;1.00;;;;;;;19.42;100.00;101184.19;5043829;28;20059;-76
2023/08/28 09:48:13;;;;;;;1.10;0.45;;;;;;;19.18;100.00;101180.41;5055696;28;20481;-75
2023/08/28 09:50:42;;;;;;;0.93;0.60;;;;;;;18.99;100.00;101188.03;5028272;28;20048;-74
2023/08/28 09:53:14;;;;;;;0.60;0.60;;;;;;;18.79;100.00;101179.63;5064166;28;20045;-74
2023/08/28 09:56:00;;;;;;;1.63;0.75;;;;;;;18.67;100.00;101180.81;5059595;28;20498;-76
2023/08/28 09:58:28;;;;;;;1.15;0.63;;;;;;;18.69;100.00;101171.88;5042419;28;20532;-76
2023/08/28 10:00:56;;;;;;;1.42;0.80;;;;;;;18.79;100.00;101166.28;5048085;28;20055;-74
2023/08/28 10:03:25;;;;;;;1.08;0.80;;;;;;;18.92;100.00;101170.41;5035020;28;20053;-75
2023/08/28 10:05:54;;;;;;;2.75;1.05;;;;;;;19.04;100.00;101182.59;5025204;28;20539;-75
2023/08/28 10:08:27;;;;;;;2.50;0.90;;;;;;;19.15;100.00;101179.59;5043597;28;20052;-75
2023/08/28 10:10:57;;;;;;;2.00;0.80;;;;;;;19.28;100.00;101183.69;5044803;28;20071;-77
2023/08/28 10:13:26;;;;;;;1.10;0.77;;;;;;;19.39;100.00;101178.94;5049423;28;20556;-75
2023/08/28 10:16:24;;;;;;;1.20;0.85;;;;;;;19.51;100.00;101182.16;5039619;28;20422;-75
2023/08/28 10:19:03;;;;;;;1.30;0.70;;;;;;;19.50;100.00;101178.63;5054624;28;20041;-74
2023/08/28 10:21:30;;;;;;;1.08;0.60;;;;;;;19.56;100.00;101190.94;5022388;28;20448;-74
2023/08/28 10:23:58;;;;;;;1.35;0.73;;;;;;;19.62;100.00;101196.09;5050018;28;20414;-75
2023/08/28 10:26:26;;;;;;;0.98;0.90;;;;;;;19.70;100.00;101194.09;5044109;28;20772;-73
2023/08/28 10:28:54;;;;;;;1.33;0.80;;;;;;;19.78;100.00;101191.25;5029650;28;20044;-73
2023/08/28 10:31:22;;;;;;;2.58;0.70;;;;;;;19.87;100.00;101188.28;5041508;28;20041;-73
2023/08/28 10:33:50;;;;;;;1.50;1.25;;;;;;;20.03;100.00;101191.38;5040406;28;20041;-74
2023/08/28 10:36:20;;;;;;;1.58;0.90;;;;;;;20.20;100.00;101189.03;5012707;28;20040;-73
2023/08/28 10:39:08;;;;;;;3.80;1.48;;;;;;;20.35;100.00;101186.81;5046420;28;20742;-74
2023/08/28 10:41:37;;;;;;;1.25;0.90;;;;;;;20.36;100.00;101186.75;5064318;28;20049;-74
2023/08/28 10:44:05;;;;;;;1.63;0.70;;;;;;;20.29;100.00;101190.56;5022989;28;20052;-74
2023/08/28 10:46:33;;;;;;;2.47;0.93;;;;;;;20.18;100.00;101198.03;5053116;28;20494;-74
2023/08/28 10:49:05;;;;;;;1.25;1.00;;;;;;;20.01;100.00;101198.56;5035726;28;20485;-74
2023/08/28 10:51:37;;;;;;;1.10;0.95;;;;;;;19.83;100.00;101206.22;5004058;28;20064;-74
2023/08/28 10:54:13;;;;;;;2.78;1.10;;;;;;;19.63;100.00;101201.41;5062506;28;20045;-74
2023/08/28 10:56:53;;;;;;;2.13;1.08;;;;;;;19.36;100.00;101205.75;5032126;28;20053;-74
2023/08/28 10:59:24;;;;;;;2.38;1.40;;;;;;;19.16;100.00;101205.41;5053426;28;20039;-74
2023/08/28 11:01:55;;;;;;;1.30;1.00;;;;;;;18.99;100.00;101212.06;5053206;28;20064;-74
2023/08/28 11:04:42;;;;;;;3.67;1.20;;;;;;;18.87;100.00;101204.38;5052419;28;20044;-74
2023/08/28 11:07:43;;;;;;;1.77;1.00;;;;;;;18.81;100.00;101205.44;5009957;28;20052;-74
2023/08/28 11:10:20;;;;;;;3.65;0.90;;;;;;;18.84;100.00;101201.78;5035185;28;20048;-77
2023/08/28 11:13:07;;;;;;;2.80;1.25;;;;;;;19.00;100.00;101202.28;5041882;28;20061;-75
2023/08/28 11:15:38;;;;;;;2.28;1.02;;;;;;;19.12;100.00;101207.28;5051609;28;20052;-74
2023/08/28 11:18:19;;;;;;;1.23;1.08;;;;;;;19.23;100.00;101196.31;5032057;28;20053;-74
2023/08/28 11:21:07;;;;;;;1.67;1.05;;;;;;;19.28;100.00;101195.28;5038871;28;20465;-75
2023/08/28 11:23:36;;;;;;;4.15;1.20;;;;;;;19.27;100.00;101200.66;5026701;28;20521;-74
2023/08/28 11:26:26;;;;;;;2.17;1.02;;;;;;;19.32;100.00;101204.09;5046852;28;20060;-75